Time;durP1;ratioP1;P1;durP2;ratioP2;P2;SDS_P1;SDS_P2;PMS_P1;PMS_P2;Temp;Humidity;BMP_temperature;BMP_pressure;BME280_temperature;BME280_humidity;BME280_pressure;Samples;Min_cycle;Max_cycle;Signal;HPM_P1;HPM_P2
2023/05/15 00:00:13;;;;;;;25.63;10.63;;;11.80;99.90;;;;;;5053083;28;20041;-63
2023/05/15 00:02:38;;;;;;;18.55;9.93;;;11.70;99.90;;;;;;5053154;28;20040;-63
2023/05/15 00:05:06;;;;;;;20.85;9.93;;;11.50;99.90;;;;;;5052517;28;20055;-63
2023/05/15 00:07:32;;;;;;;20.40;10.10;;;11.60;99.90;;;;;;5053008;28;20083;-63
2023/05/15 00:09:58;;;;;;;23.70;10.90;;;11.60;99.90;;;;;;5052859;28;20378;-63
2023/05/15 00:12:23;;;;;;;23.15;11.65;;;11.50;99.90;;;;;;5052878;28;20033;-63
2023/05/15 00:14:49;;;;;;;24.98;11.07;;;11.10;99.90;;;;;;5052514;28;20033;-63
2023/05/15 00:17:15;;;;;;;24.73;10.68;;;11.50;99.90;;;;;;5052845;28;20080;-63
2023/05/15 00:19:40;;;;;;;20.65;11.68;;;11.60;99.90;;;;;;5052823;28;20056;-63
2023/05/15 00:22:07;;;;;;;25.95;11.68;;;11.30;99.90;;;;;;5034720;28;20539;-64
2023/05/15 00:24:33;;;;;;;20.33;10.93;;;11.30;99.90;;;;;;5052857;28;20400;-64
2023/05/15 00:27:00;;;;;;;23.20;11.32;;;11.50;99.90;;;;;;5052746;28;20469;-63
2023/05/15 00:29:25;;;;;;;25.80;11.20;;;11.50;99.90;;;;;;5052918;28;20045;-63
2023/05/15 00:31:51;;;;;;;22.88;11.13;;;11.50;99.90;;;;;;5052638;28;20044;-63
2023/05/15 00:34:17;;;;;;;26.30;11.27;;;11.50;99.90;;;;;;5052686;28;20044;-64
2023/05/15 00:36:43;;;;;;;22.98;10.88;;;11.60;99.90;;;;;;5052668;28;20374;-63
2023/05/15 00:39:08;;;;;;;26.75;11.70;;;11.40;99.90;;;;;;5052643;28;20119;-63
2023/05/15 00:41:35;;;;;;;23.75;11.20;;;11.40;99.90;;;;;;5052651;28;20464;-63
2023/05/15 00:44:02;;;;;;;22.58;11.43;;;11.40;99.90;;;;;;5052285;28;20092;-63
2023/05/15 00:46:29;;;;;;;22.40;11.93;;;11.40;99.90;;;;;;5051069;28;20041;-64
2023/05/15 00:48:56;;;;;;;26.30;11.20;;;11.30;99.90;;;;;;5052188;28;20044;-63
2023/05/15 00:51:22;;;;;;;26.98;11.55;;;11.30;99.90;;;;;;5051024;28;20073;-63
2023/05/15 00:53:51;;;;;;;26.63;11.55;;;11.20;99.90;;;;;;5052568;28;20041;-63
2023/05/15 00:56:17;;;;;;;27.40;12.43;;;11.20;99.90;;;;;;5052473;28;20041;-63
2023/05/15 00:58:46;;;;;;;22.38;11.32;;;10.90;99.90;;;;;;5052466;28;20037;-63
2023/05/15 01:01:14;;;;;;;24.52;11.73;;;11.20;99.90;;;;;;5052465;28;20045;-63
2023/05/15 01:03:40;;;;;;;23.63;11.45;;;11.20;99.90;;;;;;5052341;28;20037;-64
2023/05/15 01:06:06;;;;;;;25.83;11.45;;;11.10;99.90;;;;;;5055859;28;20135;-64
2023/05/15 01:08:49;;;;;;;23.05;11.70;;;11.10;99.90;;;;;;5056104;28;20123;-63
2023/05/15 01:11:16;;;;;;;24.20;11.40;;;11.10;99.90;;;;;;5055975;28;20535;-64
2023/05/15 01:13:43;;;;;;;23.10;11.10;;;10.90;99.90;;;;;;5055922;28;20048;-63
2023/05/15 01:16:09;;;;;;;21.17;12.02;;;10.80;99.90;;;;;;5055684;28;20033;-63
2023/05/15 01:18:35;;;;;;;29.73;13.07;;;11.00;99.90;;;;;;5055942;28;20091;-63
2023/05/15 01:21:01;;;;;;;23.75;11.30;;;11.40;99.90;;;;;;5037915;28;20044;-63
2023/05/15 01:23:45;;;;;;;26.50;12.07;;;11.00;99.90;;;;;;5055738;28;20084;-63
2023/05/15 01:26:39;;;;;;;26.88;12.00;;;11.00;99.90;;;;;;5055713;28;20369;-63
2023/05/15 01:29:10;;;;;;;27.05;12.07;;;11.00;99.90;;;;;;5054186;28;20045;-63
2023/05/15 01:31:37;;;;;;;22.05;11.57;;;11.00;99.90;;;;;;5055569;28;20477;-63
2023/05/15 01:34:07;;;;;;;23.60;12.02;;;10.90;99.90;;;;;;5055560;28;20037;-64
2023/05/15 01:36:39;;;;;;;24.45;11.50;;;11.00;99.90;;;;;;5055530;28;20037;-63
2023/05/15 01:39:07;;;;;;;30.70;12.10;;;11.10;99.90;;;;;;5055512;28;20045;-63
2023/05/15 01:41:51;;;;;;;25.80;11.55;;;11.00;99.90;;;;;;5053954;28;20049;-63
2023/05/15 01:44:21;;;;;;;25.52;12.20;;;10.90;99.90;;;;;;5055415;28;20377;-63
2023/05/15 01:46:50;;;;;;;22.92;10.90;;;10.70;99.90;;;;;;5055135;28;20391;-63
2023/05/15 01:49:18;;;;;;;22.45;11.73;;;11.00;99.90;;;;;;5055103;28;20049;-64
2023/05/15 01:51:47;;;;;;;21.95;11.40;;;11.00;99.90;;;;;;5055134;28;20044;-63
2023/05/15 01:54:14;;;;;;;22.67;11.00;;;11.00;99.90;;;;;;5055199;28;20068;-63
2023/05/15 01:56:42;;;;;;;26.88;11.45;;;10.90;99.90;;;;;;5054908;28;20488;-63
2023/05/15 01:59:08;;;;;;;22.45;11.73;;;10.90;99.90;;;;;;5055210;28;20401;-63
2023/05/15 02:01:36;;;;;;;23.27;11.13;;;10.80;99.90;;;;;;5055089;28;20048;-63
2023/05/15 02:04:03;;;;;;;21.90;10.85;;;10.70;99.90;;;;;;5054499;28;20100;-63
2023/05/15 02:06:29;;;;;;;25.75;11.07;;;10.80;99.90;;;;;;5053479;28;20049;-63
2023/05/15 02:08:57;;;;;;;25.30;10.90;;;10.70;99.90;;;;;;5054590;28;20047;-63
2023/05/15 02:11:22;;;;;;;25.23;11.07;;;10.70;99.90;;;;;;5054534;28;20045;-63
2023/05/15 02:13:49;;;;;;;26.08;12.10;;;10.70;99.90;;;;;;5054842;28;20036;-63
2023/05/15 02:16:14;;;;;;;24.98;11.90;;;10.70;99.90;;;;;;5053780;28;20111;-63
2023/05/15 02:18:40;;;;;;;25.80;11.07;;;10.70;99.90;;;;;;5054785;28;20107;-64
2023/05/15 02:21:07;;;;;;;26.67;11.70;;;10.70;99.90;;;;;;5054397;28;20164;-63
2023/05/15 02:23:32;;;;;;;19.98;9.65;;;11.10;99.90;;;;;;5053175;28;20069;-63
2023/05/15 02:26:26;;;;;;;22.45;10.90;;;10.70;99.90;;;;;;5054488;28;20044;-63
2023/05/15 02:29:16;;;;;;;19.20;10.52;;;10.70;99.90;;;;;;5053322;28;20048;-63
2023/05/15 02:31:46;;;;;;;20.70;10.85;;;10.70;99.90;;;;;;5052941;28;20497;-63
2023/05/15 02:34:24;;;;;;;19.98;9.90;;;10.70;99.90;;;;;;5054484;28;20029;-63
2023/05/15 02:36:52;;;;;;;18.98;10.38;;;10.70;99.90;;;;;;5054091;28;20080;-63
2023/05/15 02:39:19;;;;;;;22.63;11.07;;;10.80;99.90;;;;;;5054399;28;20069;-63
2023/05/15 02:41:45;;;;;;;21.88;11.38;;;10.80;99.90;;;;;;5054290;28;20040;-63
2023/05/15 02:44:13;;;;;;;23.42;10.00;;;10.80;99.90;;;;;;5054234;28;20408;-63
2023/05/15 02:46:40;;;;;;;20.85;10.05;;;10.80;99.90;;;;;;5053937;28;20037;-63
2023/05/15 02:49:06;;;;;;;20.83;11.23;;;10.90;99.90;;;;;;5054082;28;20401;-63
2023/05/15 02:51:32;;;;;;;26.13;10.80;;;10.80;99.90;;;;;;5053668;28;20049;-64
2023/05/15 02:54:00;;;;;;;24.23;10.77;;;10.90;99.90;;;;;;5052513;28;20051;-63
2023/05/15 02:56:26;;;;;;;20.75;11.45;;;10.90;99.90;;;;;;5052772;28;20043;-63
2023/05/15 02:58:51;;;;;;;25.13;10.38;;;10.80;99.90;;;;;;5052736;28;20485;-63
2023/05/15 03:01:17;;;;;;;21.38;10.75;;;10.80;99.90;;;;;;5053881;28;20458;-63
2023/05/15 03:03:42;;;;;;;22.08;10.60;;;10.50;99.90;;;;;;5053636;28;20068;-64
2023/05/15 03:06:08;;;;;;;28.20;12.27;;;10.80;99.90;;;;;;5053845;28;20485;-63
2023/05/15 03:08:34;;;;;;;28.80;11.57;;;10.80;99.90;;;;;;5053820;28;20036;-63
2023/05/15 03:10:59;;;;;;;25.02;11.52;;;10.70;99.90;;;;;;5053673;28;20469;-63
2023/05/15 03:13:25;;;;;;;19.50;10.77;;;10.80;99.90;;;;;;5053729;28;20045;-63
2023/05/15 03:15:52;;;;;;;23.33;11.18;;;10.80;99.90;;;;;;5053577;28;20562;-63
2023/05/15 03:18:18;;;;;;;23.40;10.77;;;10.50;99.90;;;;;;5053382;28;20037;-63
2023/05/15 03:20:44;;;;;;;24.50;11.75;;;10.80;99.90;;;;;;5052068;28;20041;-63
2023/05/15 03:23:09;;;;;;;20.38;10.70;;;10.80;99.90;;;;;;5053570;28;20178;-63
2023/05/15 03:25:35;;;;;;;23.23;11.13;;;10.70;99.90;;;;;;5052578;28;20048;-63
2023/05/15 03:28:01;;;;;;;23.20;10.88;;;10.30;99.90;;;;;;5053167;28;20123;-63
2023/05/15 03:30:26;;;;;;;25.08;10.55;;;10.70;99.90;;;;;;5052980;28;20045;-63
2023/05/15 03:32:52;;;;;;;20.50;10.95;;;11.20;99.90;;;;;;5053564;28;20040;-63
2023/05/15 03:35:17;;;;;;;25.15;11.48;;;11.90;99.90;;;;;;5053369;28;20389;-63
2023/05/15 03:37:43;;;;;;;22.77;11.20;;;11.20;99.90;;;;;;5053286;28;20033;-65
2023/05/15 03:40:09;;;;;;;25.77;11.77;;;10.40;99.90;;;;;;5053305;28;20033;-63
2023/05/15 03:42:35;;;;;;;21.70;11.02;;;10.60;99.90;;;;;;5052085;28;20037;-63
2023/05/15 03:45:01;;;;;;;23.20;11.05;;;10.60;99.90;;;;;;5053169;28;20090;-63
2023/05/15 03:47:26;;;;;;;21.00;10.85;;;10.50;99.90;;;;;;5053015;28;20049;-63
2023/05/15 03:49:52;;;;;;;24.05;10.38;;;10.00;99.90;;;;;;5053040;28;20067;-63
2023/05/15 03:52:17;;;;;;;19.23;10.73;;;10.40;99.90;;;;;;5053094;28;20079;-63
2023/05/15 03:54:43;;;;;;;19.58;9.60;;;10.30;99.90;;;;;;5052887;28;20037;-63
2023/05/15 03:57:09;;;;;;;20.58;10.48;;;11.20;99.90;;;;;;5052966;28;20091;-63
2023/05/15 03:59:34;;;;;;;24.13;11.13;;;10.30;99.90;;;;;;5053021;28;20052;-63
2023/05/15 04:02:00;;;;;;;15.35;9.27;;;10.00;99.90;;;;;;5052851;28;20059;-63
2023/05/15 04:04:26;;;;;;;16.02;9.30;;;10.30;99.90;;;;;;5051464;28;20049;-64
2023/05/15 04:06:51;;;;;;;19.55;9.75;;;9.80;99.90;;;;;;5052873;28;20033;-63
2023/05/15 04:09:17;;;;;;;23.05;10.50;;;10.00;99.90;;;;;;5052885;28;20041;-63
2023/05/15 04:11:45;;;;;;;25.92;9.98;;;10.20;99.90;;;;;;5052761;28;20183;-63
2023/05/15 04:14:11;;;;;;;17.50;9.68;;;10.10;99.90;;;;;;5052702;28;20167;-63
2023/05/15 04:16:36;;;;;;;18.83;9.80;;;10.00;99.90;;;;;;5052888;28;20449;-63
2023/05/15 04:19:02;;;;;;;21.15;10.85;;;10.20;99.90;;;;;;5052478;28;20060;-63
2023/05/15 04:21:27;;;;;;;20.38;10.95;;;10.10;99.90;;;;;;5052786;28;20040;-63
2023/05/15 04:23:53;;;;;;;16.42;9.07;;;10.20;99.90;;;;;;5052739;28;20044;-63
2023/05/15 04:26:19;;;;;;;19.48;9.23;;;10.10;99.90;;;;;;5052469;28;20536;-63
2023/05/15 04:28:44;;;;;;;19.95;10.43;;;10.10;99.90;;;;;;5052695;28;20120;-64
2023/05/15 04:31:10;;;;;;;25.42;11.13;;;10.10;99.90;;;;;;5052654;28;20120;-64
2023/05/15 04:33:38;;;;;;;21.58;10.10;;;9.90;99.90;;;;;;5051446;28;20040;-64
2023/05/15 04:36:05;;;;;;;19.60;10.50;;;10.20;99.90;;;;;;5051185;28;20047;-63
2023/05/15 04:38:31;;;;;;;19.05;9.25;;;10.10;99.90;;;;;;5052325;28;20327;-63
2023/05/15 04:40:56;;;;;;;18.60;9.27;;;10.00;99.90;;;;;;5056169;28;20052;-63
2023/05/15 04:43:22;;;;;;;17.08;8.48;;;10.10;99.90;;;;;;5056443;28;20040;-63
2023/05/15 04:45:48;;;;;;;22.63;9.18;;;10.50;99.90;;;;;;5056432;28;20120;-64
2023/05/15 04:48:13;;;;;;;18.48;9.52;;;10.10;99.90;;;;;;5056424;28;20469;-64
2023/05/15 04:50:39;;;;;;;22.50;9.60;;;10.20;99.90;;;;;;5038179;28;20048;-64
2023/05/15 04:53:05;;;;;;;22.58;9.25;;;10.00;99.90;;;;;;5056055;28;20120;-63
2023/05/15 04:55:30;;;;;;;23.65;9.45;;;10.00;99.90;;;;;;5056273;28;20037;-63
2023/05/15 04:57:56;;;;;;;24.48;10.25;;;10.00;99.90;;;;;;5056246;28;20162;-63
2023/05/15 05:00:22;;;;;;;20.90;9.55;;;10.10;99.90;;;;;;5056204;28;20488;-63
2023/05/15 05:02:47;;;;;;;24.70;9.65;;;10.00;99.90;;;;;;5055841;28;20045;-63
2023/05/15 05:05:13;;;;;;;17.83;9.95;;;10.00;99.90;;;;;;5055792;28;20128;-63
2023/05/15 05:07:39;;;;;;;20.50;8.80;;;10.00;99.90;;;;;;5056094;28;20041;-63
2023/05/15 05:10:05;;;;;;;23.55;9.57;;;10.10;99.90;;;;;;5055930;28;20040;-64
2023/05/15 05:12:31;;;;;;;22.55;9.32;;;10.10;99.90;;;;;;5056007;28;20124;-64
2023/05/15 05:14:57;;;;;;;19.40;10.00;;;10.50;99.90;;;;;;5055924;28;20079;-62
2023/05/15 05:17:22;;;;;;;19.85;9.15;;;10.40;99.90;;;;;;5055904;28;20029;-63
2023/05/15 05:19:48;;;;;;;22.75;9.30;;;10.20;99.90;;;;;;5055788;28;20041;-62
2023/05/15 05:22:13;;;;;;;20.50;9.73;;;10.30;99.90;;;;;;5055481;28;20041;-63
2023/05/15 05:24:39;;;;;;;16.92;8.40;;;10.50;99.90;;;;;;5055634;28;20041;-63
2023/05/15 05:27:05;;;;;;;20.52;8.80;;;10.50;99.90;;;;;;5055440;28;20048;-63
2023/05/15 05:29:31;;;;;;;20.92;8.88;;;10.60;99.90;;;;;;5055648;28;20037;-63
2023/05/15 05:31:57;;;;;;;19.73;8.82;;;10.70;99.90;;;;;;5053984;28;20048;-64
2023/05/15 05:34:22;;;;;;;16.98;8.23;;;10.60;99.90;;;;;;5055655;28;20527;-67
2023/05/15 05:36:48;;;;;;;18.63;7.88;;;10.80;99.90;;;;;;5055516;28;20029;-64
2023/05/15 05:39:15;;;;;;;17.02;7.72;;;10.50;99.90;;;;;;5055416;28;20033;-63
2023/05/15 05:41:41;;;;;;;15.65;7.95;;;10.00;99.90;;;;;;5055113;28;20119;-64
2023/05/15 05:44:07;;;;;;;17.67;8.45;;;10.50;99.90;;;;;;5054089;28;20087;-64
2023/05/15 05:46:32;;;;;;;15.05;7.60;;;10.40;99.90;;;;;;5054955;28;20037;-63
2023/05/15 05:48:58;;;;;;;17.23;8.07;;;13.00;99.90;;;;;;5055146;28;20037;-64
2023/05/15 05:51:24;;;;;;;17.00;8.00;;;10.40;99.90;;;;;;5054986;28;20499;-64
2023/05/15 05:53:49;;;;;;;12.18;7.38;;;10.40;99.90;;;;;;5055148;28;20486;-65
2023/05/15 05:56:15;;;;;;;16.02;8.20;;;10.50;99.90;;;;;;5055081;28;20116;-64
2023/05/15 05:58:41;;;;;;;16.38;7.47;;;10.30;99.90;;;;;;5055034;28;20491;-64
2023/05/15 06:01:07;;;;;;;19.27;8.20;;;10.40;99.90;;;;;;5055027;28;20489;-63
2023/05/15 06:03:33;;;;;;;11.18;6.93;;;10.30;99.90;;;;;;5054917;28;20044;-71
2023/05/15 06:05:59;;;;;;;16.17;8.60;;;9.90;99.90;;;;;;5053225;28;20132;-64
2023/05/15 06:08:25;;;;;;;16.65;8.52;;;10.40;99.90;;;;;;5054645;28;20041;-67
2023/05/15 06:10:50;;;;;;;13.43;7.85;;;10.80;99.90;;;;;;5054760;28;20048;-70
2023/05/15 06:13:16;;;;;;;14.65;8.02;;;10.70;99.90;;;;;;5054498;28;20041;-68
2023/05/15 06:15:42;;;;;;;20.27;8.13;;;10.50;99.90;;;;;;5054471;28;20040;-67
2023/05/15 06:18:08;;;;;;;17.15;8.40;;;10.70;99.90;;;;;;5054733;28;20068;-64
2023/05/15 06:20:33;;;;;;;12.57;7.22;;;10.80;99.90;;;;;;5054715;28;20431;-64
2023/05/15 06:22:59;;;;;;;14.48;7.95;;;10.80;99.90;;;;;;5054245;28;20041;-64
2023/05/15 06:25:25;;;;;;;17.00;8.38;;;11.80;99.90;;;;;;5054392;28;20037;-68
2023/05/15 06:27:50;;;;;;;13.02;8.02;;;11.20;99.90;;;;;;5052917;28;20408;-64
2023/05/15 06:30:16;;;;;;;15.13;8.02;;;11.70;99.90;;;;;;5054250;28;20477;-64
2023/05/15 06:32:42;;;;;;;14.85;8.23;;;;;;;;;;5052888;28;20386;-63
2023/05/15 06:35:08;;;;;;;16.40;7.88;;;11.90;99.90;;;;;;5054440;28;20044;-65
2023/05/15 06:37:35;;;;;;;12.13;6.75;;;12.10;96.00;;;;;;5054399;28;20043;-63
2023/05/15 06:40:01;;;;;;;13.30;7.97;;;12.30;71.70;;;;;;5054358;28;20400;-63
2023/05/15 06:42:27;;;;;;;12.30;6.85;;;12.40;62.70;;;;;;5052793;28;20091;-64
2023/05/15 06:44:53;;;;;;;14.48;7.90;;;12.60;34.70;;;;;;5054139;28;20048;-64
2023/05/15 06:47:18;;;;;;;14.82;7.75;;;12.70;5.60;;;;;;5054009;28;20083;-64
2023/05/15 06:49:44;;;;;;;12.40;6.13;;;12.60;1.00;;;;;;5053877;28;20047;-65
2023/05/15 06:52:10;;;;;;;10.38;6.32;;;12.60;1.00;;;;;;5053880;28;20401;-64
2023/05/15 06:54:35;;;;;;;12.55;6.47;;;12.90;1.00;;;;;;5052688;28;20091;-64
2023/05/15 06:57:01;;;;;;;15.23;6.75;;;13.10;99.90;;;;;;5052555;28;20040;-64
2023/05/15 06:59:27;;;;;;;13.65;6.18;;;13.10;99.90;;;;;;5053717;28;20090;-64
2023/05/15 07:01:52;;;;;;;11.38;6.70;;;14.00;99.90;;;;;;5053146;28;20041;-64
2023/05/15 07:04:18;;;;;;;13.02;6.55;;;11.60;99.90;;;;;;5052061;28;20064;-64
2023/05/15 07:06:44;;;;;;;10.30;6.57;;;13.60;99.90;;;;;;5053567;28;20421;-63
2023/05/15 07:09:10;;;;;;;10.48;6.20;;;13.50;57.00;;;;;;5053217;28;20497;-63
2023/05/15 07:11:37;;;;;;;10.98;5.90;;;13.70;99.90;;;;;;5053471;28;20041;-62
2023/05/15 07:14:06;;;;;;;15.02;6.43;;;13.70;99.90;;;;;;5053425;28;20051;-63
2023/05/15 07:16:31;;;;;;;11.98;7.03;;;14.00;1.00;;;;;;5053475;28;20493;-63
2023/05/15 07:18:57;;;;;;;12.18;6.35;;;14.40;99.90;;;;;;5053386;28;20040;-63
2023/05/15 07:21:23;;;;;;;10.45;6.45;;;14.00;99.90;;;;;;5053450;28;20564;-63
2023/05/15 07:23:48;;;;;;;10.38;6.70;;;14.00;99.90;;;;;;5053312;28;20043;-63
2023/05/15 07:26:14;;;;;;;9.52;5.97;;;14.30;99.90;;;;;;5053301;28;20079;-63
2023/05/15 07:28:40;;;;;;;10.80;6.10;;;14.10;99.90;;;;;;5053304;28;20121;-64
2023/05/15 07:31:06;;;;;;;12.88;6.82;;;14.20;99.90;;;;;;5053198;28;20049;-64
2023/05/15 07:33:32;;;;;;;12.20;6.38;;;14.20;99.90;;;;;;5053260;28;20067;-64
2023/05/15 07:35:57;;;;;;;10.70;6.05;;;14.40;99.90;;;;;;5053208;28;20033;-64
2023/05/15 07:38:24;;;;;;;9.90;5.95;;;;;;;;;;5053220;28;20051;-64
2023/05/15 07:40:49;;;;;;;9.27;6.05;;;14.70;1.00;;;;;;5053032;28;20123;-64
2023/05/15 07:43:15;;;;;;;12.23;5.95;;;14.80;66.60;;;;;;5051847;28;20453;-64
2023/05/15 07:45:41;;;;;;;11.63;6.28;;;15.70;99.90;;;;;;5051913;28;20037;-63
2023/05/15 07:48:17;;;;;;;12.15;5.57;;;15.00;99.90;;;;;;5053102;28;20072;-64
2023/05/15 07:50:45;;;;;;;9.18;5.90;;;15.10;99.90;;;;;;5052984;28;20537;-64
2023/05/15 07:53:11;;;;;;;10.20;5.53;;;15.10;99.90;;;;;;5053025;28;20033;-64
2023/05/15 07:55:37;;;;;;;9.10;5.20;;;15.20;1.00;;;;;;5052927;28;20095;-64
2023/05/15 07:58:02;;;;;;;8.85;5.35;;;15.20;99.90;;;;;;5052948;28;20473;-64
2023/05/15 08:00:28;;;;;;;11.45;6.47;;;16.00;99.90;;;;;;5051575;28;20047;-64
2023/05/15 08:02:53;;;;;;;9.85;6.35;;;15.30;99.90;;;;;;5052769;28;20045;-64
2023/05/15 08:05:19;;;;;;;10.18;5.50;;;15.30;99.90;;;;;;5052305;28;20492;-64
2023/05/15 08:07:45;;;;;;;8.68;5.32;;;15.30;80.80;;;;;;5052727;28;20041;-64
2023/05/15 08:10:10;;;;;;;9.50;5.47;;;15.40;18.80;;;;;;5052707;28;20041;-64
2023/05/15 08:12:36;;;;;;;10.20;5.45;;;15.50;1.00;;;;;;5052516;28;20511;-64
2023/05/15 08:15:02;;;;;;;8.35;5.50;;;15.60;50.30;;;;;;5055298;28;20029;-64
2023/05/15 08:17:28;;;;;;;7.53;4.85;;;15.70;1.00;;;;;;5056884;28;20048;-63
2023/05/15 08:19:54;;;;;;;11.52;5.82;;;15.70;1.00;;;;;;5055252;28;20504;-64
2023/05/15 08:22:20;;;;;;;8.32;5.03;;;15.90;1.00;;;;;;5055270;28;20116;-63
2023/05/15 08:24:45;;;;;;;7.22;5.30;;;15.90;1.00;;;;;;5056482;28;20144;-63
2023/05/15 08:27:11;;;;;;;9.57;5.20;;;16.00;1.00;;;;;;5056771;28;20455;-63
2023/05/15 08:29:38;;;;;;;9.68;5.80;;;16.00;99.90;;;;;;5056599;28;20481;-62
2023/05/15 08:32:05;;;;;;;7.80;5.05;;;15.90;99.90;;;;;;5056445;28;20044;-64
2023/05/15 08:34:31;;;;;;;8.70;5.00;;;15.90;99.90;;;;;;5056585;28;20080;-63
2023/05/15 08:36:58;;;;;;;9.68;5.30;;;16.70;99.90;;;;;;5056528;28;20072;-64
2023/05/15 08:39:24;;;;;;;9.63;5.32;;;16.10;99.90;;;;;;5056460;28;20029;-64
2023/05/15 08:41:57;;;;;;;8.43;5.47;;;16.20;99.90;;;;;;5056346;28;20481;-63
2023/05/15 08:44:23;;;;;;;7.57;4.78;;;16.20;99.90;;;;;;5056149;28;20048;-64
2023/05/15 08:46:51;;;;;;;8.25;5.18;;;16.20;99.90;;;;;;5056327;28;20392;-63
2023/05/15 08:49:25;;;;;;;8.30;4.60;;;16.10;99.90;;;;;;5054703;28;20085;-63
2023/05/15 08:51:52;;;;;;;6.18;4.15;;;16.20;99.90;;;;;;5056229;28;20036;-63
2023/05/15 08:54:18;;;;;;;8.82;4.95;;;16.40;99.90;;;;;;5056224;28;20094;-63
2023/05/15 08:56:44;;;;;;;7.78;4.80;;;16.30;99.90;;;;;;5056195;28;20040;-64
2023/05/15 08:59:09;;;;;;;7.50;4.68;;;16.60;99.90;;;;;;5055897;28;20063;-64
2023/05/15 09:01:36;;;;;;;6.15;4.43;;;16.70;99.90;;;;;;5056023;28;20040;-64
2023/05/15 09:04:03;;;;;;;8.52;4.88;;;16.40;99.90;;;;;;5055902;28;20045;-63
2023/05/15 09:06:29;;;;;;;8.05;4.88;;;17.30;99.90;;;;;;5056065;28;20049;-63
2023/05/15 09:08:56;;;;;;;6.97;4.18;;;16.90;99.90;;;;;;5055973;28;20493;-64
2023/05/15 09:11:23;;;;;;;9.18;5.15;;;17.60;99.90;;;;;;5055986;28;20396;-63
2023/05/15 09:13:49;;;;;;;6.18;4.47;;;16.90;99.90;;;;;;5054723;28;20123;-63
2023/05/15 09:16:15;;;;;;;10.60;4.80;;;16.90;99.90;;;;;;5055567;28;20044;-63
2023/05/15 09:18:42;;;;;;;7.78;4.63;;;17.20;99.90;;;;;;5054346;28;20044;-63
2023/05/15 09:21:28;;;;;;;7.63;4.28;;;17.40;99.90;;;;;;5055756;28;20041;-63
2023/05/15 09:24:13;;;;;;;7.70;4.93;;;17.20;99.90;;;;;;5054469;28;20123;-63
2023/05/15 09:26:39;;;;;;;9.00;4.53;;;17.00;99.90;;;;;;5053825;28;20056;-63
2023/05/15 09:29:05;;;;;;;6.82;4.28;;;17.00;99.90;;;;;;5055655;28;20041;-64
2023/05/15 09:31:30;;;;;;;6.68;4.25;;;17.20;99.90;;;;;;5055485;28;20872;-63
2023/05/15 09:34:00;;;;;;;6.25;5.18;;;17.40;99.90;;;;;;5055472;28;20036;-63
2023/05/15 09:36:27;;;;;;;5.93;3.55;;;16.90;99.90;;;;;;5054060;28;20408;-64
2023/05/15 09:38:58;;;;;;;8.52;4.45;;;17.20;99.90;;;;;;5055487;28;20509;-65
2023/05/15 09:41:28;;;;;;;6.43;3.90;;;17.40;99.90;;;;;;5055396;28;20037;-63
2023/05/15 09:43:55;;;;;;;9.68;4.65;;;18.30;99.90;;;;;;5055105;28;20079;-63
2023/05/15 09:46:22;;;;;;;7.38;4.38;;;18.90;99.90;;;;;;5055335;28;20072;-63
2023/05/15 09:48:48;;;;;;;9.45;4.93;;;18.00;99.90;;;;;;5055234;28;20068;-63
2023/05/15 09:51:16;;;;;;;6.25;4.55;;;18.20;99.90;;;;;;5055091;28;20041;-63
2023/05/15 09:53:46;;;;;;;8.68;4.55;;;17.60;99.90;;;;;;5055044;28;20532;-63
2023/05/15 09:56:13;;;;;;;9.18;4.47;;;18.00;99.90;;;;;;5055097;28;20040;-63
2023/05/15 09:58:54;;;;;;;8.73;4.20;;;17.80;99.90;;;;;;5054597;28;20044;-64
2023/05/15 10:01:24;;;;;;;6.65;4.30;;;18.00;99.90;;;;;;5055357;28;20503;-65
2023/05/15 10:03:57;;;;;;;5.63;3.75;;;17.80;99.90;;;;;;5054798;28;20033;-65
2023/05/15 10:06:23;;;;;;;7.57;3.97;;;18.00;99.90;;;;;;5054517;28;20060;-71
2023/05/15 10:08:55;;;;;;;10.88;4.68;;;18.30;99.90;;;;;;5036684;28;20045;-65
2023/05/15 10:11:23;;;;;;;7.82;4.35;;;17.60;99.90;;;;;;5054360;28;20048;-64
2023/05/15 10:13:48;;;;;;;4.93;3.88;;;18.50;99.90;;;;;;5053130;28;20060;-67
2023/05/15 10:16:17;;;;;;;5.65;3.25;;;18.80;99.90;;;;;;5053164;28;20037;-65
2023/05/15 10:18:44;;;;;;;7.05;3.58;;;17.70;99.90;;;;;;5054296;28;20052;-64
2023/05/15 10:21:11;;;;;;;6.00;3.05;;;17.80;99.90;;;;;;5054526;28;20374;-64
2023/05/15 10:23:41;;;;;;;6.43;4.13;;;17.70;99.90;;;;;;5052923;28;20043;-65
2023/05/15 10:26:26;;;;;;;6.70;4.18;;;17.60;99.90;;;;;;5054449;28;20041;-64
2023/05/15 10:28:52;;;;;;;5.72;3.60;;;17.70;99.90;;;;;;5054371;28;20432;-64
2023/05/15 10:31:19;;;;;;;5.00;3.40;;;18.20;99.90;;;;;;5054118;28;20045;-64
2023/05/15 10:33:46;;;;;;;5.47;3.25;;;18.30;99.90;;;;;;5052724;28;20048;-64
2023/05/15 10:36:13;;;;;;;10.25;4.15;;;17.90;99.90;;;;;;5053848;28;20110;-64
2023/05/15 10:38:39;;;;;;;6.30;4.20;;;17.90;99.90;;;;;;5053772;28;20455;-64
2023/05/15 10:41:07;;;;;;;5.70;3.45;;;17.90;99.90;;;;;;5052525;28;20041;-64
2023/05/15 10:43:34;;;;;;;5.45;3.80;;;17.90;99.90;;;;;;5054164;28;20052;-64
2023/05/15 10:46:00;;;;;;;5.75;3.78;;;18.00;99.90;;;;;;5054042;28;20512;-64
2023/05/15 10:48:27;;;;;;;5.43;3.08;;;18.40;99.90;;;;;;5054002;28;20539;-64
2023/05/15 10:50:52;;;;;;;5.07;3.70;;;18.20;99.90;;;;;;5053553;28;20098;-64
2023/05/15 10:53:19;;;;;;;5.68;3.42;;;18.10;99.90;;;;;;5053795;28;20036;-68
2023/05/15 10:55:48;;;;;;;5.28;3.20;;;18.30;99.90;;;;;;5053499;28;20041;-66
2023/05/15 10:58:13;;;;;;;5.35;3.22;;;18.10;99.90;;;;;;5053743;28;20033;-64
2023/05/15 11:00:43;;;;;;;5.28;3.30;;;18.50;99.90;;;;;;5053737;28;20055;-64
2023/05/15 11:03:13;;;;;;;6.80;3.78;;;18.50;99.90;;;;;;5053631;28;20120;-65
2023/05/15 11:06:08;;;;;;;5.57;3.57;;;18.40;99.90;;;;;;5053395;28;20191;-65
2023/05/15 11:08:38;;;;;;;7.93;3.30;;;18.50;99.90;;;;;;5053576;28;20049;-65
2023/05/15 11:11:04;;;;;;;8.88;3.63;;;18.50;99.90;;;;;;5053519;28;20079;-65
2023/05/15 11:14:01;;;;;;;5.57;3.95;;;18.60;99.90;;;;;;5053534;28;20488;-64
2023/05/15 11:16:51;;;;;;;9.07;3.95;;;18.30;99.90;;;;;;5053386;28;20116;-65
2023/05/15 11:19:53;;;;;;;4.35;3.13;;;18.30;99.90;;;;;;5035194;28;20094;-64
2023/05/15 11:22:29;;;;;;;7.40;3.28;;;18.30;99.90;;;;;;5053333;28;20029;-64
2023/05/15 11:25:09;;;;;;;6.47;4.20;;;18.30;99.90;;;;;;5053359;28;20033;-64
2023/05/15 11:27:40;;;;;;;5.38;3.80;;;18.40;99.90;;;;;;5051967;28;20037;-67
2023/05/15 11:30:23;;;;;;;7.32;3.85;;;18.60;99.90;;;;;;5051952;28;20416;-64
2023/05/15 11:32:53;;;;;;;4.85;3.40;;;18.70;99.90;;;;;;5053079;28;20047;-64
2023/05/15 11:35:22;;;;;;;6.22;4.03;;;18.80;99.90;;;;;;5052923;28;20036;-64
2023/05/15 11:37:50;;;;;;;7.20;4.00;;;18.90;99.90;;;;;;5053139;28;20045;-64
2023/05/15 11:40:27;;;;;;;5.47;3.88;;;18.80;99.90;;;;;;5053232;28;20409;-64
2023/05/15 11:43:01;;;;;;;5.65;3.85;;;18.90;99.90;;;;;;5053103;28;20401;-64
2023/05/15 11:45:36;;;;;;;5.35;3.63;;;18.90;99.90;;;;;;5053109;28;20098;-64
2023/05/15 11:48:06;;;;;;;7.43;3.85;;;18.80;99.90;;;;;;5052890;28;20044;-64
2023/05/15 11:50:33;;;;;;;;;;;18.70;99.90;;;;;;5053397;28;20480;-64
2023/05/15 11:53:06;;;;;;;5.40;3.28;;;18.50;99.90;;;;;;5052662;28;20111;-64
2023/05/15 11:55:34;;;;;;;6.50;3.95;;;18.40;99.90;;;;;;5053028;28;20040;-65
2023/05/15 11:58:00;;;;;;;7.18;4.47;;;18.30;99.90;;;;;;5052878;28;20121;-64
2023/05/15 12:00:26;;;;;;;5.53;3.58;;;18.30;99.90;;;;;;5052613;28;20052;-65
2023/05/15 12:02:52;;;;;;;6.47;4.22;;;18.40;99.90;;;;;;5052829;28;20084;-64
2023/05/15 12:05:18;;;;;;;5.85;3.75;;;18.90;99.90;;;;;;5052574;28;20115;-65
2023/05/15 12:07:43;;;;;;;7.55;3.88;;;18.60;99.90;;;;;;5034799;28;20499;-65
2023/05/15 12:10:11;;;;;;;6.60;3.70;;;18.60;99.90;;;;;;5052708;28;20522;-65
2023/05/15 12:12:45;;;;;;;7.13;4.32;;;18.70;99.90;;;;;;5051214;28;20045;-65
2023/05/15 12:15:12;;;;;;;6.00;3.58;;;18.80;99.90;;;;;;5052460;28;20087;-65
2023/05/15 12:17:41;;;;;;;5.20;3.25;;;19.00;99.90;;;;;;5052537;28;20040;-65
2023/05/15 12:20:10;;;;;;;5.68;3.28;;;20.00;99.90;;;;;;5052402;28;20073;-65
2023/05/15 12:22:37;;;;;;;5.65;3.00;;;19.40;1.00;;;;;;5052434;28;20055;-65
2023/05/15 12:25:07;;;;;;;3.80;2.85;;;20.10;92.20;;;;;;5052661;28;20109;-65
2023/05/15 12:27:37;;;;;;;7.65;4.15;;;19.40;99.90;;;;;;5052378;28;20067;-65
2023/05/15 12:30:04;;;;;;;4.93;3.35;;;19.10;99.90;;;;;;5052362;28;20033;-65
2023/05/15 12:32:35;;;;;;;6.22;3.88;;;19.10;94.70;;;;;;5050878;28;20090;-65
2023/05/15 12:35:02;;;;;;;6.32;3.67;;;19.30;97.10;;;;;;5052517;28;20075;-65
2023/05/15 12:37:30;;;;;;;8.52;3.45;;;20.00;98.30;;;;;;5052121;28;20037;-66
2023/05/15 12:40:00;;;;;;;7.43;4.10;;;19.80;99.90;;;;;;5052471;28;20112;-66